Time;durP1;ratioP1;P1;durP2;ratioP2;P2;SDS_P1;SDS_P2;PMS_P1;PMS_P2;Temp;Humidity;BMP_temperature;BMP_pressure;BME280_temperature;BME280_humidity;BME280_pressure;Samples;Min_cycle;Max_cycle;Signal;HPM_P1;HPM_P2
2023/03/05 00:01:51;;;;;;;4.18;1.90;;;16.10;57.80;;;;;;5016858;28;20195;-65
2023/03/05 00:04:41;;;;;;;6.13;2.13;;;16.20;58.10;;;;;;5014917;28;20348;-63
2023/03/05 00:07:29;;;;;;;3.40;1.73;;;16.30;58.50;;;;;;5016078;28;20601;-65
2023/03/05 00:10:17;;;;;;;4.95;1.70;;;16.00;59.80;;;;;;5016898;28;20238;-66
2023/03/05 00:13:06;;;;;;;5.07;1.95;;;16.10;59.80;;;;;;5016038;28;20230;-64
2023/03/05 00:15:54;;;;;;;3.38;1.60;;;16.10;59.90;;;;;;5015897;28;20603;-66
2023/03/05 00:18:43;;;;;;;3.97;1.88;;;16.20;59.90;;;;;;5015966;28;20203;-64
2023/03/05 00:21:35;;;;;;;4.43;2.17;;;16.20;59.70;;;;;;5016887;28;20199;-64
2023/03/05 00:24:23;;;;;;;4.55;1.58;;;16.30;59.70;;;;;;5016022;28;20296;-64
2023/03/05 00:27:11;;;;;;;4.93;1.90;;;16.40;59.40;;;;;;5016574;28;20203;-65
2023/03/05 00:29:59;;;;;;;5.65;1.80;;;16.50;58.90;;;;;;5014960;28;20198;-64
2023/03/05 00:32:47;;;;;;;8.20;2.08;;;16.50;59.00;;;;;;5016515;28;20218;-64
2023/03/05 00:35:39;;;;;;;4.07;1.58;;;16.50;58.30;;;;;;5052274;23;20275;-60
2023/03/05 00:38:28;;;;;;;4.00;1.73;;;16.50;58.50;;;;;;5038731;28;20193;-61
2023/03/05 00:41:17;;;;;;;3.85;1.67;;;16.60;58.60;;;;;;5035279;28;20690;-62
2023/03/05 00:44:05;;;;;;;6.50;1.90;;;16.50;74.70;;;;;;5034424;28;20202;-60
2023/03/05 00:46:53;;;;;;;2.92;1.27;;;16.60;58.10;;;;;;5034743;28;20670;-60
2023/03/05 00:49:41;;;;;;;2.55;1.35;;;16.70;58.70;;;;;;5033793;28;20285;-60
2023/03/05 00:52:29;;;;;;;4.75;1.65;;;16.70;58.20;;;;;;5033886;28;20217;-59
2023/03/05 00:55:19;;;;;;;3.17;2.13;;;16.70;58.60;;;;;;5033554;28;20264;-60
2023/03/05 00:58:07;;;;;;;3.63;1.52;;;16.70;58.50;;;;;;5047124;28;20202;-60
2023/03/05 01:00:58;;;;;;;2.78;1.45;;;16.80;57.70;;;;;;5053307;28;20647;-60
2023/03/05 01:03:46;;;;;;;1.63;1.38;;;16.70;56.20;;;;;;5053086;28;20197;-60
2023/03/05 01:06:34;;;;;;;4.22;1.60;;;16.70;56.40;;;;;;5053065;28;20201;-60
2023/03/05 01:09:24;;;;;;;3.55;1.60;;;16.70;55.50;;;;;;5052657;28;20230;-60
2023/03/05 01:12:13;;;;;;;5.13;2.17;;;16.70;55.70;;;;;;5051864;28;20333;-60
2023/03/05 01:15:01;;;;;;;3.97;1.63;;;16.50;55.40;;;;;;5051741;28;20294;-60
2023/03/05 01:17:49;;;;;;;2.83;1.30;;;16.50;56.00;;;;;;5051455;28;20783;-60
2023/03/05 01:20:37;;;;;;;2.20;1.40;;;16.50;55.80;;;;;;5052730;28;20673;-60
2023/03/05 01:23:25;;;;;;;4.90;1.55;;;16.40;55.60;;;;;;5052268;28;20201;-60
2023/03/05 01:26:13;;;;;;;3.20;1.52;;;16.40;55.40;;;;;;5052319;28;20293;-60
2023/03/05 01:29:03;;;;;;;4.35;1.52;;;16.40;55.30;;;;;;5051351;28;20193;-60
2023/03/05 01:31:51;;;;;;;3.85;1.55;;;16.30;55.20;;;;;;5053880;28;20283;-60
2023/03/05 01:34:40;;;;;;;1.90;1.30;;;16.30;55.40;;;;;;5053018;28;20236;-60
2023/03/05 01:37:28;;;;;;;4.28;1.40;;;16.20;55.30;;;;;;5052453;28;20772;-60
2023/03/05 01:40:19;;;;;;;4.75;1.50;;;16.10;55.10;;;;;;5053333;28;20738;-60
2023/03/05 01:43:21;;;;;;;2.53;1.30;;;16.10;55.30;;;;;;5053974;28;20193;-60
2023/03/05 01:46:28;;;;;;;3.72;1.55;;;16.00;55.70;;;;;;5054237;28;20249;-60
2023/03/05 01:49:21;;;;;;;4.07;1.38;;;15.90;55.40;;;;;;5058903;28;20212;-61
2023/03/05 01:52:16;;;;;;;2.80;1.58;;;15.90;56.30;;;;;;5061566;28;20201;-60
2023/03/05 01:55:08;;;;;;;2.03;1.17;;;15.90;58.70;;;;;;5051143;28;20240;-60
2023/03/05 01:58:00;;;;;;;1.63;1.27;;;15.90;59.00;;;;;;5039345;28;20281;-60
2023/03/05 02:00:50;;;;;;;3.72;1.20;;;16.00;58.60;;;;;;5033024;28;20714;-60
2023/03/05 02:03:41;;;;;;;2.75;1.65;;;16.10;58.40;;;;;;5033545;28;20198;-60
2023/03/05 02:06:29;;;;;;;1.25;1.15;;;16.10;58.50;;;;;;5032253;28;20206;-61
2023/03/05 02:09:17;;;;;;;3.30;1.10;;;16.20;58.30;;;;;;5032169;28;20899;-60
2023/03/05 02:12:06;;;;;;;1.92;1.05;;;16.20;58.30;;;;;;5032048;28;20252;-61
2023/03/05 02:14:58;;;;;;;1.92;1.20;;;16.20;58.10;;;;;;5031752;28;20214;-60
2023/03/05 02:17:46;;;;;;;3.58;1.73;;;16.20;58.30;;;;;;5032319;28;20210;-60
2023/03/05 02:20:46;;;;;;;1.65;1.17;;;16.30;58.20;;;;;;5032058;28;20344;-60
2023/03/05 02:23:36;;;;;;;3.58;1.40;;;16.30;56.70;;;;;;5032184;28;20259;-60
2023/03/05 02:26:24;;;;;;;3.90;1.50;;;16.40;56.80;;;;;;5031707;28;20726;-60
2023/03/05 02:29:17;;;;;;;3.40;1.92;;;16.40;55.10;;;;;;5032985;28;20309;-60
2023/03/05 02:32:05;;;;;;;2.60;1.25;;;16.40;54.90;;;;;;5037136;28;20248;-60
2023/03/05 02:34:53;;;;;;;4.03;2.20;;;16.40;54.70;;;;;;5035975;28;20287;-60
2023/03/05 02:37:41;;;;;;;1.73;1.45;;;16.40;54.20;;;;;;5032464;28;20674;-60
2023/03/05 02:40:31;;;;;;;2.55;0.90;;;16.40;54.80;;;;;;5034246;28;20653;-60
2023/03/05 02:43:19;;;;;;;3.83;1.20;;;16.30;54.10;;;;;;5035277;28;20277;-60
2023/03/05 02:46:08;;;;;;;2.95;1.10;;;16.30;54.40;;;;;;5036756;28;20285;-60
2023/03/05 02:48:56;;;;;;;2.97;1.13;;;16.20;54.40;;;;;;5041714;28;20313;-60
2023/03/05 02:51:44;;;;;;;3.90;1.17;;;16.20;54.70;;;;;;5037334;28;20686;-60
2023/03/05 02:54:32;;;;;;;3.95;1.20;;;16.10;54.80;;;;;;5034628;28;20697;-60
2023/03/05 02:57:21;;;;;;;2.33;1.17;;;16.00;54.80;;;;;;5043496;28;20202;-60
2023/03/05 03:00:11;;;;;;;1.83;1.05;;;16.00;54.50;;;;;;5055105;28;20575;-60
2023/03/05 03:02:59;;;;;;;2.75;1.50;;;15.90;55.30;;;;;;5056491;28;20582;-59
2023/03/05 03:05:47;;;;;;;2.17;1.02;;;15.90;55.30;;;;;;5053763;28;20225;-60
2023/03/05 03:08:35;;;;;;;2.33;1.10;;;15.80;55.70;;;;;;5054041;28;20208;-60
2023/03/05 03:11:23;;;;;;;2.50;1.42;;;15.80;58.50;;;;;;5055132;28;20201;-59
2023/03/05 03:14:12;;;;;;;2.45;1.00;;;15.90;74.60;;;;;;5054530;28;20343;-60
2023/03/05 03:17:00;;;;;;;4.57;1.23;;;15.90;58.70;;;;;;5054647;28;20193;-60
2023/03/05 03:19:49;;;;;;;3.78;1.27;;;16.00;58.40;;;;;;5054124;28;20284;-60
2023/03/05 03:22:37;;;;;;;1.23;0.82;;;16.00;58.10;;;;;;5054784;28;20719;-60
2023/03/05 03:25:25;;;;;;;2.17;1.10;;;16.10;57.90;;;;;;5053664;28;20322;-60
2023/03/05 03:28:13;;;;;;;2.75;1.13;;;16.10;57.90;;;;;;5054992;28;20193;-60
2023/03/05 03:31:03;;;;;;;2.30;1.08;;;16.10;57.80;;;;;;5054018;28;20674;-60
2023/03/05 03:33:51;;;;;;;3.80;1.20;;;16.20;57.80;;;;;;5055633;28;20305;-60
2023/03/05 03:36:39;;;;;;;2.38;0.90;;;16.20;57.70;;;;;;5054324;28;20206;-60
2023/03/05 03:39:27;;;;;;;2.30;1.05;;;16.30;57.90;;;;;;5054643;28;20689;-60
2023/03/05 03:42:16;;;;;;;2.17;1.10;;;16.30;57.80;;;;;;5052694;28;20205;-60
2023/03/05 03:45:05;;;;;;;2.17;0.90;;;16.30;57.30;;;;;;5053393;28;20300;-60
2023/03/05 03:47:55;;;;;;;1.98;1.00;;;16.40;55.60;;;;;;5055231;28;20673;-60
2023/03/05 03:50:43;;;;;;;2.90;1.25;;;16.30;55.90;;;;;;5054967;28;20280;-60
2023/03/05 03:53:31;;;;;;;1.85;0.93;;;16.30;55.10;;;;;;5054364;28;20248;-60
2023/03/05 03:56:20;;;;;;;1.55;0.85;;;16.20;55.60;;;;;;5053389;28;20217;-60
2023/03/05 03:59:08;;;;;;;1.67;1.17;;;16.20;55.60;;;;;;5044546;28;20261;-61
2023/03/05 04:01:56;;;;;;;3.10;1.10;;;16.10;55.20;;;;;;5047996;28;20256;-60
2023/03/05 04:04:45;;;;;;;3.08;1.20;;;16.10;55.50;;;;;;5033812;28;20222;-60
2023/03/05 04:07:33;;;;;;;3.30;1.25;;;16.00;55.40;;;;;;5033557;28;20198;-60
2023/03/05 04:10:21;;;;;;;2.58;1.10;;;16.00;55.70;;;;;;5033400;28;20685;-60
2023/03/05 04:13:09;;;;;;;2.35;0.90;;;16.00;55.30;;;;;;5033973;28;20302;-60
2023/03/05 04:15:58;;;;;;;2.08;1.15;;;15.40;55.00;;;;;;5033471;28;20222;-60
2023/03/05 04:18:47;;;;;;;1.30;1.17;;;15.90;55.40;;;;;;5033330;28;20225;-60
2023/03/05 04:21:36;;;;;;;1.80;0.90;;;15.80;55.70;;;;;;5034270;28;20223;-60
2023/03/05 04:24:24;;;;;;;5.95;1.40;;;15.80;55.90;;;;;;5033348;28;20297;-60
2023/03/05 04:27:12;;;;;;;3.42;0.93;;;15.80;56.70;;;;;;5033876;28;20208;-60
2023/03/05 04:30:00;;;;;;;0.90;0.70;;;15.70;56.40;;;;;;5033989;28;20281;-60
2023/03/05 04:32:48;;;;;;;3.13;1.33;;;15.80;58.40;;;;;;5033068;28;20233;-60
2023/03/05 04:35:37;;;;;;;1.02;0.90;;;15.80;58.40;;;;;;5033419;28;20308;-60
2023/03/05 04:38:26;;;;;;;2.78;1.15;;;15.90;58.00;;;;;;5032712;28;20198;-60
2023/03/05 04:41:14;;;;;;;3.55;1.65;;;15.90;58.30;;;;;;5033005;28;20281;-60
2023/03/05 04:44:02;;;;;;;2.25;0.93;;;16.20;72.00;;;;;;5032651;28;20229;-60
2023/03/05 04:46:50;;;;;;;1.55;1.00;;;15.90;58.00;;;;;;5039339;28;20604;-60
2023/03/05 04:49:39;;;;;;;1.40;0.70;;;16.00;58.20;;;;;;5051964;28;20202;-61
2023/03/05 04:52:27;;;;;;;2.95;0.95;;;16.10;58.00;;;;;;5051831;28;20205;-60
2023/03/05 04:55:17;;;;;;;2.88;1.00;;;16.10;57.90;;;;;;5052919;28;20256;-60
2023/03/05 04:58:05;;;;;;;3.67;1.00;;;16.10;57.80;;;;;;5038577;28;20240;-61
2023/03/05 05:00:53;;;;;;;2.13;0.80;;;16.20;58.00;;;;;;5032032;28;20201;-60
2023/03/05 05:03:41;;;;;;;2.55;0.80;;;16.20;56.80;;;;;;5032631;28;20689;-60
2023/03/05 05:06:29;;;;;;;1.50;0.82;;;16.20;56.60;;;;;;5033523;28;20198;-60
2023/03/05 05:09:17;;;;;;;2.95;1.00;;;16.20;56.40;;;;;;5033976;28;20194;-61
2023/03/05 05:12:09;;;;;;;2.75;1.17;;;16.20;56.10;;;;;;5032603;28;20237;-63
2023/03/05 05:14:58;;;;;;;1.83;1.10;;;16.30;55.80;;;;;;5032824;28;20276;-60
2023/03/05 05:17:46;;;;;;;1.77;1.10;;;16.30;55.80;;;;;;5032001;28;20573;-60
2023/03/05 05:20:34;;;;;;;0.95;0.77;;;16.20;55.80;;;;;;5032113;28;20770;-60
2023/03/05 05:23:22;;;;;;;1.08;0.90;;;16.20;55.70;;;;;;5032193;28;20280;-60
2023/03/05 05:26:13;;;;;;;1.88;0.82;;;16.10;56.00;;;;;;5031839;28;20297;-60
2023/03/05 05:29:02;;;;;;;2.75;1.08;;;16.00;55.90;;;;;;5031951;28;20283;-60
2023/03/05 05:31:52;;;;;;;2.75;1.10;;;16.00;55.80;;;;;;5031434;28;20608;-60
2023/03/05 05:34:40;;;;;;;1.63;0.80;;;15.90;55.90;;;;;;5031666;28;20230;-60
2023/03/05 05:37:29;;;;;;;2.15;0.90;;;15.90;56.10;;;;;;5030834;28;20202;-60
2023/03/05 05:40:17;;;;;;;2.22;1.08;;;15.80;56.40;;;;;;5043457;28;20212;-60
2023/03/05 05:43:05;;;;;;;2.63;0.93;;;16.00;56.60;;;;;;5055150;28;20265;-59
2023/03/05 05:45:54;;;;;;;1.10;0.88;;;15.60;57.10;;;;;;5034401;28;20228;-60
2023/03/05 05:48:43;;;;;;;1.55;0.80;;;15.60;57.30;;;;;;5033021;28;20209;-60
2023/03/05 05:51:31;;;;;;;1.20;0.90;;;15.60;58.80;;;;;;5031985;28;20212;-60
2023/03/05 05:54:19;;;;;;;3.45;1.10;;;15.60;75.50;;;;;;5032329;28;20221;-60
2023/03/05 05:57:07;;;;;;;2.13;0.80;;;15.80;58.80;;;;;;5038141;28;20600;-60
2023/03/05 05:59:56;;;;;;;0.90;0.80;;;15.90;58.60;;;;;;5052186;28;20197;-60
2023/03/05 06:02:45;;;;;;;1.25;0.95;;;16.00;58.20;;;;;;5052653;28;20197;-60
2023/03/05 06:05:34;;;;;;;3.80;0.90;;;16.00;58.30;;;;;;5051619;28;20221;-60
2023/03/05 06:08:22;;;;;;;3.22;0.90;;;16.10;58.10;;;;;;5063010;28;20666;-60
2023/03/05 06:11:10;;;;;;;1.08;0.70;;;16.20;58.00;;;;;;5063160;28;20201;-61
2023/03/05 06:13:58;;;;;;;3.72;1.00;;;16.20;57.90;;;;;;5052372;28;20288;-61
2023/03/05 06:16:46;;;;;;;1.80;0.80;;;16.20;57.50;;;;;;5057585;28;20251;-60
2023/03/05 06:19:36;;;;;;;1.73;0.95;;;16.30;57.40;;;;;;5072523;28;20184;-60
2023/03/05 06:22:24;;;;;;;1.20;0.70;;;16.30;57.80;;;;;;5072919;28;20261;-60
2023/03/05 06:25:12;;;;;;;0.98;0.75;;;16.30;57.80;;;;;;5067639;28;20250;-61
2023/03/05 06:28:00;;;;;;;2.88;0.85;;;16.40;57.80;;;;;;5052505;28;20588;-61
2023/03/05 06:30:48;;;;;;;2.42;0.80;;;16.50;57.70;;;;;;5051288;28;20271;-61
2023/03/05 06:33:37;;;;;;;1.27;0.98;;;15.50;56.70;;;;;;5051595;28;20205;-63
2023/03/05 06:36:28;;;;;;;1.75;0.80;;;16.50;57.20;;;;;;5076929;22;20320;-62
2023/03/05 06:39:16;;;;;;;2.53;0.73;;;16.50;56.40;;;;;;5052207;28;20197;-62
2023/03/05 06:42:04;;;;;;;2.15;1.08;;;16.50;56.20;;;;;;5051342;28;20207;-62
2023/03/05 06:44:52;;;;;;;2.47;0.80;;;16.50;56.20;;;;;;5051682;28;20231;-62
2023/03/05 06:47:40;;;;;;;1.20;0.80;;;16.40;56.40;;;;;;5052375;28;20343;-62
2023/03/05 06:50:28;;;;;;;1.10;1.00;;;16.30;56.20;;;;;;5053444;28;20197;-62
2023/03/05 06:53:18;;;;;;;1.52;0.82;;;16.30;56.40;;;;;;5052372;28;20587;-62
2023/03/05 06:56:06;;;;;;;1.15;0.90;;;16.20;56.70;;;;;;5052432;28;20304;-62
2023/03/05 06:58:54;;;;;;;1.83;1.17;;;16.20;56.40;;;;;;5033328;28;20230;-62
2023/03/05 07:01:42;;;;;;;1.70;0.88;;;16.20;56.30;;;;;;5040530;28;20703;-62
2023/03/05 07:04:30;;;;;;;0.80;0.80;;;16.20;65.30;;;;;;5051882;28;20570;-62
2023/03/05 07:07:18;;;;;;;1.40;1.02;;;16.10;56.40;;;;;;5052382;28;20759;-62
2023/03/05 07:10:11;;;;;;;3.42;0.90;;;16.10;56.30;;;;;;5052085;28;20201;-62
2023/03/05 07:12:59;;;;;;;1.20;0.68;;;16.00;56.40;;;;;;5051823;28;20193;-62
2023/03/05 07:15:47;;;;;;;1.98;0.80;;;15.90;56.30;;;;;;5051417;28;20231;-62
2023/03/05 07:18:36;;;;;;;5.40;1.05;;;15.90;56.50;;;;;;5055751;28;20204;-62
2023/03/05 07:21:28;;;;;;;1.80;0.98;;;15.80;56.70;;;;;;5054831;28;20198;-62
2023/03/05 07:24:16;;;;;;;1.40;0.80;;;15.80;56.90;;;;;;5055125;28;20206;-62
2023/03/05 07:27:06;;;;;;;2.30;1.00;;;15.80;58.60;;;;;;5055222;28;20194;-62
2023/03/05 07:29:54;;;;;;;1.70;1.00;;;15.90;58.70;;;;;;5055228;28;20676;-62
2023/03/05 07:32:42;;;;;;;3.35;0.70;;;15.90;58.70;;;;;;5054964;28;20201;-62
2023/03/05 07:35:30;;;;;;;3.90;0.80;;;15.90;58.40;;;;;;5055204;28;20343;-62
2023/03/05 07:38:18;;;;;;;3.63;0.90;;;16.00;58.40;;;;;;5055139;28;20576;-62
2023/03/05 07:41:10;;;;;;;2.25;0.80;;;16.00;58.20;;;;;;5055425;28;20276;-62
2023/03/05 07:43:59;;;;;;;1.10;0.80;;;16.10;58.30;;;;;;5054981;28;20280;-63
2023/03/05 07:46:47;;;;;;;1.20;0.80;;;16.20;58.10;;;;;;5065315;28;20249;-62
2023/03/05 07:49:35;;;;;;;1.83;0.80;;;16.20;58.00;;;;;;5073857;28;20209;-62
2023/03/05 07:52:23;;;;;;;1.95;0.68;;;16.20;57.90;;;;;;5074051;28;20260;-62
2023/03/05 07:55:12;;;;;;;5.82;1.27;;;16.20;57.50;;;;;;5073066;28;20286;-62
2023/03/05 07:58:00;;;;;;;2.72;0.70;;;16.30;57.60;;;;;;5069688;28;20284;-62
2023/03/05 08:00:49;;;;;;;1.85;0.77;;;16.30;57.00;;;;;;5056511;28;20288;-62
2023/03/05 08:03:38;;;;;;;1.52;0.80;;;16.30;56.00;;;;;;5054622;28;20280;-62
2023/03/05 08:06:27;;;;;;;0.60;0.60;;;16.40;56.00;;;;;;5054447;28;20260;-62
2023/03/05 08:09:15;;;;;;;1.58;0.73;;;16.40;55.90;;;;;;5054465;28;20201;-62
2023/03/05 08:12:03;;;;;;;3.47;1.00;;;16.40;55.30;;;;;;5055497;28;20202;-62
2023/03/05 08:14:51;;;;;;;1.40;0.77;;;16.40;55.70;;;;;;5054396;28;20221;-63
2023/03/05 08:17:41;;;;;;;1.27;0.70;;;16.40;54.90;;;;;;5055030;28;20205;-62
2023/03/05 08:20:29;;;;;;;1.67;0.80;;;16.30;55.00;;;;;;5055880;28;20205;-62
2023/03/05 08:23:17;;;;;;;1.45;0.80;;;16.30;55.00;;;;;;5054728;28;20217;-62
2023/03/05 08:26:13;;;;;;;1.55;0.70;;;16.20;55.10;;;;;;5054941;28;20210;-62
2023/03/05 08:29:02;;;;;;;0.80;0.80;;;16.20;55.00;;;;;;5053087;28;20557;-62
2023/03/05 08:31:52;;;;;;;1.73;0.90;;;16.10;55.20;;;;;;5053995;28;20202;-62
2023/03/05 08:34:41;;;;;;;2.35;0.75;;;16.10;71.50;;;;;;5051739;28;20249;-62
2023/03/05 08:37:29;;;;;;;1.45;0.70;;;15.90;54.90;;;;;;5052358;28;20767;-62
2023/03/05 08:40:18;;;;;;;1.00;0.95;;;15.90;55.00;;;;;;5052395;28;20197;-62
2023/03/05 08:43:06;;;;;;;1.60;0.70;;;15.80;55.20;;;;;;5052299;28;20202;-62
2023/03/05 08:45:54;;;;;;;1.48;0.60;;;15.70;55.80;;;;;;5051954;28;20222;-62
2023/03/05 08:48:43;;;;;;;1.25;0.90;;;15.70;58.00;;;;;;5052303;28;20284;-62
2023/03/05 08:51:33;;;;;;;2.45;0.60;;;15.80;58.10;;;;;;5052027;28;20387;-62
2023/03/05 08:54:21;;;;;;;1.33;0.80;;;15.90;58.30;;;;;;5052152;28;20287;-62
2023/03/05 08:57:09;;;;;;;1.52;0.70;;;16.00;57.90;;;;;;5052671;28;20225;-62
2023/03/05 08:59:57;;;;;;;1.05;0.77;;;16.00;57.50;;;;;;5052568;28;20286;-62
2023/03/05 09:02:45;;;;;;;0.95;0.80;;;16.10;57.80;;;;;;5051680;28;20579;-62
2023/03/05 09:05:33;;;;;;;1.25;0.80;;;16.20;58.10;;;;;;5052357;28;20229;-62
2023/03/05 09:08:23;;;;;;;3.13;0.85;;;16.30;58.00;;;;;;5053246;28;20282;-62
2023/03/05 09:11:12;;;;;;;1.08;0.60;;;16.30;57.70;;;;;;5052199;28;20193;-62
2023/03/05 09:14:01;;;;;;;1.35;0.80;;;16.30;56.60;;;;;;5053582;28;20289;-62
2023/03/05 09:16:49;;;;;;;0.77;0.70;;;16.40;57.30;;;;;;5053080;28;20705;-62
2023/03/05 09:19:37;;;;;;;1.27;0.95;;;16.40;56.70;;;;;;5052675;28;20338;-62
2023/03/05 09:22:25;;;;;;;2.25;0.60;;;16.40;57.30;;;;;;5051456;28;20205;-62
2023/03/05 09:25:14;;;;;;;1.27;0.80;;;16.50;57.30;;;;;;5051390;28;20252;-62
2023/03/05 09:28:02;;;;;;;1.60;1.00;;;16.50;56.80;;;;;;5051068;28;20606;-60
2023/03/05 09:30:50;;;;;;;2.10;1.30;;;16.50;55.30;;;;;;5051810;28;20296;-62
2023/03/05 09:33:39;;;;;;;3.42;0.90;;;16.60;54.80;;;;;;5052991;28;20201;-62
2023/03/05 09:36:29;;;;;;;1.42;0.90;;;16.50;54.50;;;;;;5052575;28;20319;-62
2023/03/05 09:39:18;;;;;;;1.67;1.08;;;16.50;54.20;;;;;;5052453;28;20747;-62
2023/03/05 09:42:29;;;;;;;1.35;0.80;;;16.40;54.10;;;;;;5051588;28;20609;-62
2023/03/05 09:45:23;;;;;;;1.77;0.70;;;16.30;54.30;;;;;;5051335;28;20294;-62
2023/03/05 09:48:19;;;;;;;1.88;0.85;;;16.30;53.90;;;;;;5052437;28;20685;-62
2023/03/05 09:51:14;;;;;;;0.93;0.70;;;16.20;54.30;;;;;;5052395;28;20201;-62
2023/03/05 09:54:07;;;;;;;2.40;0.82;;;16.10;54.30;;;;;;5053063;28;20238;-62
2023/03/05 09:56:57;;;;;;;1.13;0.80;;;16.10;54.50;;;;;;5051756;28;20223;-62
2023/03/05 09:59:51;;;;;;;2.78;0.80;;;16.20;54.40;;;;;;5050754;28;20202;-62
2023/03/05 10:02:48;;;;;;;1.48;0.70;;;16.10;54.40;;;;;;5052380;28;20201;-62
2023/03/05 10:05:52;;;;;;;1.42;0.80;;;16.10;54.40;;;;;;5051346;28;20312;-63
2023/03/05 10:08:48;;;;;;;0.80;0.80;;;16.10;54.80;;;;;;5051655;28;20284;-62
2023/03/05 10:11:50;;;;;;;1.02;0.90;;;16.00;56.60;;;;;;5050820;28;20209;-61
2023/03/05 10:14:40;;;;;;;1.52;0.80;;;16.20;69.30;;;;;;5050642;28;20699;-62
2023/03/05 10:17:47;;;;;;;1.25;0.82;;;16.00;57.60;;;;;;5051510;28;20652;-62
2023/03/05 10:20:46;;;;;;;2.20;0.90;;;16.10;57.50;;;;;;5051437;28;20220;-62
2023/03/05 10:23:58;;;;;;;0.77;0.77;;;16.20;57.80;;;;;;5050762;28;20288;-62
2023/03/05 10:26:57;;;;;;;1.73;0.75;;;16.20;57.40;;;;;;5050343;28;20300;-62
2023/03/05 10:29:57;;;;;;;1.48;0.88;;;16.20;57.40;;;;;;5050374;28;20691;-62
2023/03/05 10:32:52;;;;;;;0.93;0.75;;;16.20;57.50;;;;;;5051417;28;20290;-62
2023/03/05 10:36:01;;;;;;;1.75;0.88;;;16.30;57.50;;;;;;5050662;28;20314;-62
2023/03/05 10:39:33;;;;;;;0.73;0.70;;;16.30;57.40;;;;;;5050651;28;20201;-62
2023/03/05 10:42:27;;;;;;;1.30;0.80;;;16.40;57.50;;;;;;5041061;28;20255;-62
2023/03/05 10:45:21;;;;;;;1.45;0.80;;;16.40;57.30;;;;;;5050109;28;20574;-61
2023/03/05 10:48:27;;;;;;;2.50;1.10;;;16.40;56.80;;;;;;5050608;28;20251;-62
2023/03/05 10:51:19;;;;;;;1.80;0.75;;;16.40;56.00;;;;;;5053377;28;20795;-62
2023/03/05 10:54:14;;;;;;;1.25;0.80;;;16.40;56.60;;;;;;5054612;28;20204;-62
2023/03/05 10:57:05;;;;;;;2.17;0.90;;;16.50;55.00;;;;;;5054740;28;20293;-62
2023/03/05 10:59:57;;;;;;;0.70;0.70;;;16.50;54.30;;;;;;5054681;28;20197;-62
2023/03/05 11:03:00;;;;;;;1.00;0.70;;;16.40;55.30;;;;;;5054810;28;20608;-63
2023/03/05 11:05:58;;;;;;;1.35;0.90;;;16.40;55.20;;;;;;5054014;28;20221;-62
2023/03/05 11:08:45;;;;;;;1.05;0.70;;;16.50;55.20;;;;;;5054385;28;20208;-62
2023/03/05 11:11:33;;;;;;;1.67;0.90;;;16.40;54.80;;;;;;5055241;28;20202;-62
2023/03/05 11:14:28;;;;;;;1.70;0.98;;;16.40;54.40;;;;;;5055705;28;20205;-62
2023/03/05 11:17:27;;;;;;;1.75;0.90;;;16.40;54.40;;;;;;5055298;28;20603;-62
2023/03/05 11:20:32;;;;;;;1.50;0.93;;;16.40;53.80;;;;;;5053589;28;20281;-62
2023/03/05 11:23:23;;;;;;;4.65;1.00;;;16.30;54.10;;;;;;5054295;28;20343;-62
2023/03/05 11:26:21;;;;;;;2.22;1.00;;;16.20;53.80;;;;;;5053484;28;20223;-62
2023/03/05 11:29:18;;;;;;;2.30;1.33;;;16.20;53.40;;;;;;5054587;28;20197;-62
2023/03/05 11:32:19;;;;;;;1.70;0.93;;;16.10;53.30;;;;;;5054317;28;20284;-61
2023/03/05 11:35:29;;;;;;;1.35;0.98;;;16.00;53.80;;;;;;5053828;28;20237;-62
2023/03/05 11:38:23;;;;;;;1.00;0.90;;;16.00;55.30;;;;;;5054329;28;20217;-62
2023/03/05 11:41:13;;;;;;;1.48;0.90;;;16.00;57.10;;;;;;5054006;28;20280;-61
2023/03/05 11:44:04;;;;;;;0.90;0.80;;;16.10;57.40;;;;;;5054188;28;20696;-61
2023/03/05 11:46:55;;;;;;;4.32;1.20;;;16.10;57.50;;;;;;5053561;28;20221;-62
2023/03/05 11:49:45;;;;;;;1.60;0.80;;;16.20;57.30;;;;;;5053631;28;20243;-62
2023/03/05 11:52:43;;;;;;;1.13;1.08;;;16.20;57.40;;;;;;5054786;28;20224;-62
2023/03/05 11:55:37;;;;;;;1.45;0.90;;;16.30;57.00;;;;;;5053264;28;20225;-62
2023/03/05 11:58:32;;;;;;;1.15;0.93;;;16.20;57.10;;;;;;5054286;28;20304;-62
2023/03/05 12:01:22;;;;;;;1.35;0.90;;;16.20;56.80;;;;;;5053117;28;20726;-62
2023/03/05 12:04:11;;;;;;;2.60;0.75;;;16.30;57.10;;;;;;5054268;28;20685;-61
2023/03/05 12:07:02;;;;;;;1.08;0.73;;;16.40;57.20;;;;;;5055077;28;20201;-61
2023/03/05 12:09:52;;;;;;;1.45;0.80;;;16.40;57.00;;;;;;5053778;28;20198;-61
2023/03/05 12:12:47;;;;;;;1.50;0.90;;;16.40;56.40;;;;;;5053373;28;20201;-61
2023/03/05 12:15:47;;;;;;;1.13;0.80;;;16.50;55.90;;;;;;5053827;28;20343;-62
2023/03/05 12:18:46;;;;;;;0.80;0.70;;;16.50;55.00;;;;;;5053857;28;20257;-62
2023/03/05 12:21:36;;;;;;;0.80;0.70;;;16.60;55.10;;;;;;5054083;28;20207;-62
2023/03/05 12:24:37;;;;;;;1.20;1.10;;;16.60;53.80;;;;;;5053368;28;20205;-61
2023/03/05 12:27:34;;;;;;;2.20;1.00;;;17.20;54.20;;;;;;5054097;28;20280;-61
2023/03/05 12:30:55;;;;;;;1.13;0.70;;;16.60;53.20;;;;;;5053558;28;20280;-62
2023/03/05 12:33:43;;;;;;;2.40;1.08;;;16.50;53.70;;;;;;5052566;28;20284;-61
2023/03/05 12:36:37;;;;;;;2.15;1.20;;;16.50;52.80;;;;;;5076743;22;20318;-65
2023/03/05 12:39:49;;;;;;;1.02;0.93;;;16.40;52.70;;;;;;5055745;28;20594;-65
2023/03/05 12:42:46;;;;;;;2.17;1.00;;;16.30;52.70;;;;;;5054477;28;20276;-64
2023/03/05 12:45:40;;;;;;;1.08;0.90;;;16.30;52.90;;;;;;5054234;28;20221;-64
2023/03/05 12:48:45;;;;;;;3.70;1.58;;;16.20;52.80;;;;;;5055911;28;20212;-67
2023/03/05 12:51:36;;;;;;;1.60;0.95;;;16.20;53.20;;;;;;5055573;28;20197;-63
2023/03/05 12:54:31;;;;;;;2.58;0.80;;;16.10;53.50;;;;;;5054871;28;20202;-64
2023/03/05 12:57:22;;;;;;;1.50;0.80;;;16.00;54.50;;;;;;5055159;28;20284;-66
2023/03/05 13:00:20;;;;;;;1.52;0.82;;;16.00;57.20;;;;;;5054480;28;20257;-64
2023/03/05 13:03:15;;;;;;;2.33;0.75;;;16.00;57.40;;;;;;5054294;28;20576;-64
2023/03/05 13:06:06;;;;;;;1.88;0.80;;;16.10;57.50;;;;;;5053995;28;20217;-64
2023/03/05 13:09:00;;;;;;;1.65;0.80;;;16.20;57.40;;;;;;5055150;28;20255;-64
2023/03/05 13:11:50;;;;;;;1.20;0.77;;;16.30;57.60;;;;;;5053949;28;20516;-64
2023/03/05 13:14:41;;;;;;;0.70;0.70;;;16.30;57.50;;;;;;5054768;28;20209;-66
2023/03/05 13:17:34;;;;;;;1.55;0.90;;;16.30;57.50;;;;;;5054030;28;20211;-64
2023/03/05 13:20:41;;;;;;;1.23;0.90;;;16.40;57.40;;;;;;5053397;28;20742;-64
2023/03/05 13:23:32;;;;;;;1.70;0.80;;;16.40;57.40;;;;;;5054113;28;20220;-64
2023/03/05 13:26:20;;;;;;;1.35;0.70;;;16.50;57.30;;;;;;5054367;28;20308;-65
2023/03/05 13:29:12;;;;;;;3.55;1.10;;;16.40;57.20;;;;;;5054327;28;20581;-63
2023/03/05 13:32:02;;;;;;;1.15;0.93;;;16.40;57.20;;;;;;5053792;28;20284;-64
2023/03/05 13:34:52;;;;;;;1.98;1.13;;;16.50;57.30;;;;;;5053303;28;20204;-66
2023/03/05 13:37:43;;;;;;;1.55;1.00;;;16.50;57.10;;;;;;5054806;28;20209;-63
2023/03/05 13:40:33;;;;;;;2.88;0.93;;;16.50;57.00;;;;;;5053155;28;20209;-63
2023/03/05 13:43:21;;;;;;;1.15;1.00;;;16.50;57.00;;;;;;5052923;28;20772;-64
2023/03/05 13:46:10;;;;;;;9.02;1.48;;;16.50;56.10;;;;;;5052666;28;20308;-64
2023/03/05 13:49:16;;;;;;;1.83;1.05;;;16.50;55.80;;;;;;5053575;28;20197;-65
2023/03/05 13:52:05;;;;;;;1.23;0.80;;;16.40;56.40;;;;;;5054383;28;20584;-64
2023/03/05 13:54:54;;;;;;;2.10;1.27;;;;;;;;;;5053091;28;20201;-64
2023/03/05 13:57:44;;;;;;;3.10;1.35;;;16.40;56.60;;;;;;5052991;28;20252;-66
2023/03/05 14:00:34;;;;;;;3.15;1.63;;;16.40;57.20;;;;;;5054073;28;20207;-65
2023/03/05 14:03:26;;;;;;;2.53;0.98;;;16.40;57.30;;;;;;5052977;28;20276;-65
2023/03/05 14:06:19;;;;;;;1.20;1.10;;;16.30;57.30;;;;;;5053705;28;20294;-65
2023/03/05 14:09:17;;;;;;;1.60;1.10;;;16.30;57.50;;;;;;5052426;28;20318;-64
2023/03/05 14:12:20;;;;;;;4.25;1.42;;;16.20;57.40;;;;;;5053785;28;20280;-65
2023/03/05 14:15:21;;;;;;;2.33;1.60;;;16.30;74.50;;;;;;5053989;28;20287;-63
2023/03/05 14:18:18;;;;;;;2.15;1.35;;;16.10;57.90;;;;;;5053414;28;20200;-64
2023/03/05 14:21:08;;;;;;;1.25;1.10;;;16.10;58.60;;;;;;5053011;28;20205;-64
2023/03/05 14:23:56;;;;;;;1.10;1.00;;;16.10;58.60;;;;;;5052326;28;20284;-66
2023/03/05 14:26:50;;;;;;;1.55;1.10;;;16.20;58.60;;;;;;5057263;28;20213;-65
2023/03/05 14:29:43;;;;;;;1.50;0.90;;;16.20;58.40;;;;;;5056617;28;20566;-65
2023/03/05 14:32:34;;;;;;;2.22;1.20;;;16.30;58.50;;;;;;5057742;28;20201;-63
2023/03/05 14:35:26;;;;;;;2.70;0.80;;;16.30;58.30;;;;;;5057954;28;20279;-66
2023/03/05 14:38:22;;;;;;;1.17;0.70;;;16.30;58.20;;;;;;5057394;28;20606;-64
2023/03/05 14:41:22;;;;;;;0.82;0.77;;;16.30;58.20;;;;;;5056639;28;20197;-63
2023/03/05 14:44:14;;;;;;;2.90;0.90;;;16.40;58.30;;;;;;5056538;28;20204;-63
2023/03/05 14:47:02;;;;;;;1.40;0.80;;;16.40;58.20;;;;;;5056487;28;20687;-65
2023/03/05 14:49:52;;;;;;;1.17;0.88;;;16.40;58.30;;;;;;5056910;28;20212;-65
2023/03/05 14:52:40;;;;;;;1.73;0.80;;;16.40;58.30;;;;;;5057228;28;20232;-65